ADDS TAF Board INFO
 
 

IDs: Format: Expanded Condensed

KBWI - Baltimore-Washington, MD, US

Issued at 2344 UTC 24 Jul 2014
Time2354Z25/01Z25/02Z25/03Z25/04Z25/05Z25/06Z25/07Z25/08Z25/09Z25/10Z25/11Z25/12Z25/13Z
TypeOBSPRVLPRVLPRVLPRVLPRVLPRVLPRVLPRVLPRVLPRVLPRVLPRVLPRVL
Vis10>6>6>6>6>6>6>6>6>6>6>6>6>6
Cig150110------------------------
CoverBKNBKNSCTSCTSCTSCTSCTSCTSCTSCTSCTSCTSCTSCT
FltCat--VFRVFRVFRVFRVFRVFRVFRVFRVFRVFRVFRVFRVFR
Wx----------------------------
WDir330350360360360360360360360360360360360360
WSpd36666666666666
WGst----------------------------
R04/22
XWnd34333333333333
HWnd14555555555555
R10/28
XWnd26666666666666
HWnd-2-1-0-0-0-0-0-0-0-0-0-0-0-0
R15/33
XWnd03444444444444
HWnd-3-5-5-5-5-5-5-5-5-5-5-5-5-5
Raw TAF
KBWI 242344Z 2500/2606 35006KT P6SM BKN110
  FM250200 36006KT P6SM SCT100
  FM252300 17005KT P6SM FEW050


Raw METAR
KBWI 242354Z 33003KT 10SM FEW050 BKN150 BKN250 24/15 A2989 RMK AO2 SLP121 T02390150 10272 20233 51005

TAF Board Legend

Hazard Green Yellow Red Magenta
Visibility (sm) >5 >2.99 >0.99 <=0.99
Ceiling (100 ft) >30 >9.99 >4.99 <=4.99
Wind Speed (kt) <10 <20 <30 >=30
Wind Gust (kt) <10 <20 <30 >=30
Weather No Wx Reported Light precipitation Moderate precipitation Heavy precipitation
Flight Category VFR MVFR IFR LIFR

Page loaded:  00:20 UTC  |   05:20 PM Pacific  |   06:20 PM Mountain  |   07:20 PM Central  |   08:20 PM Eastern

 

ADVISORIES

FORECASTS

FORECASTS

OBSERVATIONS

USER TOOLS

ABOUT US